Thunder radar more information blitzortung!


Radar de pluja more information rain snow radar


Visita la nostra xarxa de llocs de meteo:

Template documentation
and downloads

And another site



No particular awareness of the weather is required.    There are no Weather-warnings

Pagina Historial Weather Underground text

Diari Resum Abril 25, 2016 Unitats:  Mètric    Imperial   Tant
« Previous Dia
SegĂźent Dia »
Diari Setmana Mensual Anual Personalitzada
  Maxima: Minima: Media:
Temperatura: 18.4 °C 7.3 °C 13.7 °C
Punt de rosada: 7.7 °C -1.7 °C 4.2 °C
Humitat: 74 % 44 % 53 %
Wind Speed: 30.9 km/h 0.0 km/h 8 km/h
RĂ fegues de vent: 30.9 km/h - -
Vent:- - SW
Pression baro: 1018.8 hPa 1013.8 hPa -
Precipitacions: 0.0 mm    
Historical Graphs
 
 
Dades de taula per Abril 25, 2016
Temps Temperatura Punt de rosada Pression baro Vent Wind Speed RĂ fegues de vent Humitat Rainfall Rate (Hourly)
00:00 12.6 °C 7.7 °C 1015.8 hPa ENE 5.6 km/h 5.6 km/h 72 % 0.0 mm
00:05 12.5 °C 7.6 °C 1015.8 hPa NNE 3.7 km/h 3.7 km/h 72 % 0.0 mm
00:10 8.7 °C -0.9 °C 1017.8 hPa WSW 8.0 km/h 8.0 km/h 51 % 0.0 mm
00:20 8.5 °C -1.1 °C 1017.8 hPa WSW 8.0 km/h 8.0 km/h 51 % 0.0 mm
00:30 8.4 °C -1.2 °C 1017.8 hPa WSW 8.0 km/h 9.7 km/h 51 % 0.0 mm
00:40 8.3 °C -1.3 °C 1017.8 hPa WSW 11.3 km/h 11.3 km/h 51 % 0.0 mm
00:50 8.2 °C -1.1 °C 1017.8 hPa West 3.2 km/h 9.7 km/h 52 % 0.0 mm
01:00 8.0 °C -1.3 °C 1017.8 hPa West 3.2 km/h 8.0 km/h 52 % 0.0 mm
01:10 7.9 °C -1.4 °C 1017.8 hPa West 3.2 km/h 6.4 km/h 52 % 0.0 mm
01:20 7.7 °C -1.6 °C 1017.8 hPa WSW 1.6 km/h 4.8 km/h 52 % 0.0 mm
01:30 7.5 °C -1.7 °C 1017.8 hPa West 1.6 km/h 4.8 km/h 52 % 0.0 mm
01:40 7.4 °C -1.6 °C 1017.8 hPa North 4.8 km/h 6.4 km/h 53 % 0.0 mm
01:50 7.3 °C -1.7 °C 1017.8 hPa NE 1.6 km/h 9.7 km/h 53 % 0.0 mm
02:00 7.5 °C -1.5 °C 1017.8 hPa West 3.2 km/h 6.4 km/h 53 % 0.0 mm
02:10 7.4 °C -1.6 °C 1017.8 hPa NW 4.8 km/h 9.7 km/h 53 % 0.0 mm
02:20 7.3 °C -1.7 °C 1017.8 hPa East 4.8 km/h 6.4 km/h 53 % 0.0 mm
02:30 7.4 °C -1.3 °C 1017.8 hPa Calm   3.2 km/h 54 % 0.0 mm
02:40 7.5 °C -1.2 °C 1017.8 hPa SW 1.6 km/h 3.2 km/h 54 % 0.0 mm
02:50 7.8 °C -0.9 °C 1017.8 hPa SW 3.2 km/h 3.2 km/h 54 % 0.0 mm
03:00 8.4 °C -0.6 °C 1017.8 hPa South 3.2 km/h 4.8 km/h 53 % 0.0 mm
03:10 8.4 °C -0.6 °C 1017.8 hPa SE 8.0 km/h 11.3 km/h 53 % 0.0 mm
03:20 8.3 °C -0.7 °C 1018.8 hPa ESE 1.6 km/h 6.4 km/h 53 % 0.0 mm
03:30 8.5 °C -0.6 °C 1018.8 hPa East 1.6 km/h 3.2 km/h 53 % 0.0 mm
03:40 8.9 °C -0.2 °C 1018.8 hPa NE 4.8 km/h 4.8 km/h 53 % 0.0 mm
03:50 9.3 °C -0.1 °C 1018.8 hPa WSW 4.8 km/h 6.4 km/h 52 % 0.0 mm
04:00 10.0 °C 0.6 °C 1018.8 hPa WSW 3.2 km/h 8.0 km/h 52 % 0.0 mm
04:10 10.0 °C 0.6 °C 1018.8 hPa NE 3.2 km/h 4.8 km/h 52 % 0.0 mm
04:20 10.4 °C 0.9 °C 1018.8 hPa ENE 1.6 km/h 3.2 km/h 52 % 0.0 mm
04:40 10.8 °C 1.3 °C 1018.8 hPa NNE 1.6 km/h 6.4 km/h 52 % 0.0 mm
04:50 11.4 °C 1.6 °C 1018.8 hPa NNE 4.8 km/h 6.4 km/h 51 % 0.0 mm
05:00 12.0 °C 2.2 °C 1018.8 hPa NW 1.6 km/h 6.4 km/h 51 % 0.0 mm
05:10 12.2 °C 2.1 °C 1018.8 hPa NW 3.2 km/h 6.4 km/h 50 % 0.0 mm
05:20 13.1 °C 3.2 °C 1018.8 hPa NW 1.6 km/h 4.8 km/h 51 % 0.0 mm
05:30 13.4 °C 3.2 °C 1018.8 hPa SW 3.2 km/h 8.0 km/h 50 % 0.0 mm
05:40 13.3 °C 3.1 °C 1018.8 hPa SW 4.8 km/h 6.4 km/h 50 % 0.0 mm
10:44 13.7 °C 3.2 °C 1018.8 hPa SSW 5.6 km/h 5.8 km/h 49 % 0.0 mm
10:49 13.7 °C 3.2 °C 1018.8 hPa SSW 7.6 km/h 7.6 km/h 49 % 0.0 mm
10:54 13.9 °C 3.3 °C 1018.8 hPa WSW 4.7 km/h 5.3 km/h 49 % 0.0 mm
10:59 14.3 °C 3.7 °C 1018.8 hPa WSW 5.6 km/h 5.6 km/h 49 % 0.0 mm
11:04 14.6 °C 3.7 °C 1018.8 hPa SSW 5.8 km/h 5.8 km/h 48 % 0.0 mm
11:10 14.5 °C 3.6 °C 1018.8 hPa West 3.2 km/h 8.0 km/h 48 % 0.0 mm
11:15 15.0 °C 4.1 °C 1018.8 hPa WSW 4.8 km/h 6.4 km/h 48 % 0.0 mm
11:20 15.1 °C 4.2 °C 1018.8 hPa WSW 6.1 km/h 6.1 km/h 48 % 0.0 mm
11:25 15.3 °C 4.0 °C 1018.8 hPa WSW 1.6 km/h 8.0 km/h 47 % 0.0 mm
11:30 15.4 °C 4.1 °C 1018.8 hPa SW 3.2 km/h 9.7 km/h 47 % 0.0 mm
11:35 15.6 °C 4.3 °C 1018.8 hPa SW 8.0 km/h 9.7 km/h 47 % 0.0 mm
11:40 15.6 °C 4.3 °C 1018.8 hPa SW 10.0 km/h 10.0 km/h 47 % 0.0 mm
11:50 16.3 °C 5.0 °C 1018.8 hPa SSW 3.2 km/h 9.7 km/h 47 % 0.0 mm
11:55 16.9 °C 5.2 °C 1018.8 hPa South 3.2 km/h 9.7 km/h 46 % 0.0 mm
12:00 16.7 °C 5.3 °C 1017.8 hPa SSW 3.2 km/h 8.0 km/h 47 % 0.0 mm
12:05 17.0 °C 5.3 °C 1017.8 hPa SW 8.0 km/h 16.1 km/h 46 % 0.0 mm
12:10 16.7 °C 5.3 °C 1017.8 hPa SW 4.8 km/h 14.5 km/h 47 % 0.0 mm
12:15 16.8 °C 5.4 °C 1017.8 hPa SSW 1.6 km/h 14.5 km/h 47 % 0.0 mm
12:20 16.8 °C 5.4 °C 1017.8 hPa SW 4.8 km/h 9.7 km/h 47 % 0.0 mm
12:25 16.6 °C 5.5 °C 1017.8 hPa SW 3.2 km/h 8.0 km/h 48 % 0.0 mm
12:30 16.8 °C 5.7 °C 1017.8 hPa SW 8.0 km/h 9.7 km/h 48 % 0.0 mm
12:35 16.4 °C 5.3 °C 1017.8 hPa SW 4.8 km/h 11.3 km/h 48 % 0.0 mm
12:40 16.6 °C 5.5 °C 1017.8 hPa SW 3.2 km/h 9.7 km/h 48 % 0.0 mm
12:45 16.4 °C 5.0 °C 1017.8 hPa SW 9.7 km/h 11.3 km/h 47 % 0.0 mm
12:50 16.8 °C 5.7 °C 1017.8 hPa SW 4.8 km/h 11.3 km/h 48 % 0.0 mm
12:55 16.9 °C 5.5 °C 1017.8 hPa SW 4.8 km/h 19.3 km/h 47 % 0.0 mm
13:00 16.7 °C 5.3 °C 1017.8 hPa SW 9.7 km/h 16.1 km/h 47 % 0.0 mm
13:05 16.8 °C 5.4 °C 1017.8 hPa SW 9.7 km/h 16.1 km/h 47 % 0.0 mm
13:10 17.4 °C 5.6 °C 1017.8 hPa SSW 4.8 km/h 14.5 km/h 46 % 0.0 mm
13:15 17.8 °C 6.3 °C 1017.8 hPa SSW 11.3 km/h 16.1 km/h 47 % 0.0 mm
13:20 17.6 °C 5.8 °C 1017.8 hPa SW 12.9 km/h 19.3 km/h 46 % 0.0 mm
13:25 17.4 °C 5.7 °C 1017.8 hPa SW 9.7 km/h 20.9 km/h 46 % 0.0 mm
13:30 17.7 °C 5.9 °C 1017.8 hPa SW 8.0 km/h 16.1 km/h 46 % 0.0 mm
13:35 17.4 °C 5.3 °C 1017.8 hPa SSW 8.0 km/h 16.1 km/h 45 % 0.0 mm
13:40 17.5 °C 5.7 °C 1017.8 hPa WSW 10.8 km/h 10.8 km/h 46 % 0.0 mm
13:45 17.8 °C 6.0 °C 1017.8 hPa SSW 12.6 km/h 12.6 km/h 46 % 0.0 mm
13:50 17.1 °C 5.4 °C 1017.8 hPa SW 14.8 km/h 14.8 km/h 46 % 0.0 mm
13:55 17.6 °C 5.8 °C 1017.8 hPa WSW 10.0 km/h 10.0 km/h 46 % 0.0 mm
14:00 17.5 °C 5.7 °C 1016.8 hPa WSW 20.9 km/h 20.9 km/h 46 % 0.0 mm
14:05 17.4 °C 5.7 °C 1016.8 hPa SW 13.0 km/h 13.0 km/h 46 % 0.0 mm
14:15 17.4 °C 5.7 °C 1017.8 hPa SSW 15.6 km/h 15.6 km/h 46 % 0.0 mm
14:20 17.5 °C 5.7 °C 1017.8 hPa WSW 13.0 km/h 13.0 km/h 46 % 0.0 mm
14:25 17.4 °C 5.7 °C 1017.8 hPa SSW 20.4 km/h 20.4 km/h 46 % 0.0 mm
14:30 17.8 °C 6.0 °C 1016.8 hPa WSW 9.3 km/h 9.3 km/h 46 % 0.0 mm
14:35 17.8 °C 6.0 °C 1016.8 hPa WSW 14.8 km/h 14.8 km/h 46 % 0.0 mm
14:40 18.1 °C 6.3 °C 1016.8 hPa SSW 14.8 km/h 14.8 km/h 46 % 0.0 mm
14:45 18.1 °C 5.9 °C 1015.8 hPa SSW 13.0 km/h 13.0 km/h 45 % 0.0 mm
14:50 18.1 °C 5.9 °C 1015.8 hPa WSW 14.8 km/h 14.8 km/h 45 % 0.0 mm
14:55 17.8 °C 5.7 °C 1015.8 hPa SW 14.0 km/h 14.0 km/h 45 % 0.0 mm
15:00 18.1 °C 5.9 °C 1015.8 hPa South 22.2 km/h 22.2 km/h 45 % 0.0 mm
15:05 18.1 °C 5.9 °C 1015.8 hPa WSW 14.8 km/h 14.8 km/h 45 % 0.0 mm
15:10 18.2 °C 6.1 °C 1015.8 hPa SSW 18.5 km/h 18.5 km/h 45 % 0.0 mm
15:15 18.0 °C 5.9 °C 1015.8 hPa SW 16.7 km/h 16.7 km/h 45 % 0.0 mm
15:20 17.9 °C 5.8 °C 1015.8 hPa South 14.0 km/h 14.0 km/h 45 % 0.0 mm
15:25 17.8 °C 5.4 °C 1015.8 hPa SW 16.7 km/h 16.7 km/h 44 % 0.0 mm
15:30 18.1 °C 5.9 °C 1015.8 hPa South 7.4 km/h 7.4 km/h 45 % 0.0 mm
15:35 18.1 °C 5.7 °C 1015.8 hPa WSW 14.8 km/h 14.8 km/h 44 % 0.0 mm
15:40 18.1 °C 5.9 °C 1015.8 hPa SSW 14.8 km/h 14.8 km/h 45 % 0.0 mm
15:45 18.3 °C 6.2 °C 1015.8 hPa WSW 16.7 km/h 16.7 km/h 45 % 0.0 mm
15:50 18.3 °C 6.2 °C 1015.8 hPa South 9.3 km/h 9.3 km/h 45 % 0.0 mm
15:55 18.4 °C 6.2 °C 1015.8 hPa South 14.8 km/h 14.8 km/h 45 % 0.0 mm
16:00 18.2 °C 6.1 °C 1015.8 hPa SSW 16.1 km/h 16.1 km/h 45 % 0.0 mm
16:05 17.9 °C 5.8 °C 1015.8 hPa SSW 18.5 km/h 18.5 km/h 45 % 0.0 mm
16:10 18.0 °C 5.9 °C 1015.8 hPa WSW 13.0 km/h 13.0 km/h 45 % 0.0 mm
16:15 17.7 °C 5.6 °C 1016.8 hPa SSW 20.4 km/h 20.4 km/h 45 % 0.0 mm
16:20 17.8 °C 6.0 °C 1016.8 hPa SE 13.0 km/h 13.0 km/h 46 % 0.0 mm
16:25 18.0 °C 5.9 °C 1016.8 hPa SSW 11.1 km/h 11.1 km/h 45 % 0.0 mm
16:30 17.5 °C 5.4 °C 1015.8 hPa SW 20.4 km/h 20.4 km/h 45 % 0.0 mm
16:35 17.7 °C 5.9 °C 1015.8 hPa WSW 20.9 km/h 20.9 km/h 46 % 0.0 mm
16:40 17.5 °C 5.7 °C 1015.8 hPa SSW 9.3 km/h 9.5 km/h 46 % 0.0 mm
16:50 18.2 °C 6.4 °C 1015.8 hPa South 13.0 km/h 13.0 km/h 46 % 0.0 mm
16:55 17.4 °C 5.7 °C 1015.8 hPa SW 22.2 km/h 22.2 km/h 46 % 0.0 mm
17:00 17.4 °C 5.7 °C 1014.8 hPa SW 16.7 km/h 16.7 km/h 46 % 0.0 mm
17:05 17.4 °C 5.7 °C 1014.8 hPa SSW 30.9 km/h 30.9 km/h 46 % 0.0 mm
17:10 17.5 °C 5.7 °C 1014.8 hPa SSW 20.4 km/h 20.4 km/h 46 % 0.0 mm
17:15 17.4 °C 5.7 °C 1014.8 hPa SSW 18.5 km/h 18.5 km/h 46 % 0.0 mm
17:20 17.4 °C 5.7 °C 1014.8 hPa SSW 7.4 km/h 7.4 km/h 46 % 0.0 mm
17:25 17.6 °C 5.8 °C 1014.8 hPa SSW 14.8 km/h 14.8 km/h 46 % 0.0 mm
17:30 17.7 °C 5.9 °C 1014.8 hPa WSW 18.5 km/h 18.5 km/h 46 % 0.0 mm
17:35 17.0 °C 5.6 °C 1014.8 hPa SW 13.0 km/h 13.0 km/h 47 % 0.0 mm
17:40 17.4 °C 5.9 °C 1014.8 hPa SSW 11.1 km/h 11.1 km/h 47 % 0.0 mm
17:45 17.2 °C 5.8 °C 1014.8 hPa SW 18.5 km/h 18.5 km/h 47 % 0.0 mm
17:50 17.2 °C 5.8 °C 1014.8 hPa West 20.9 km/h 20.9 km/h 47 % 0.0 mm
17:55 16.9 °C 6.1 °C 1014.8 hPa SW 24.1 km/h 24.1 km/h 49 % 0.0 mm
18:00 16.8 °C 6.0 °C 1014.8 hPa WSW 14.8 km/h 14.8 km/h 49 % 0.0 mm
18:05 16.9 °C 6.1 °C 1014.8 hPa SW 14.8 km/h 14.8 km/h 49 % 0.0 mm
18:10 17.2 °C 6.4 °C 1014.8 hPa WSW 7.4 km/h 7.4 km/h 49 % 0.0 mm
18:15 16.9 °C 6.4 °C 1014.8 hPa SSW 14.8 km/h 14.8 km/h 50 % 0.0 mm
18:20 16.7 °C 6.2 °C 1014.8 hPa South 16.7 km/h 16.7 km/h 50 % 0.0 mm
18:25 16.8 °C 6.3 °C 1014.8 hPa WSW 11.1 km/h 11.1 km/h 50 % 0.0 mm
18:30 16.7 °C 6.5 °C 1014.8 hPa SSW 14.8 km/h 14.8 km/h 51 % 0.0 mm
18:35 16.7 °C 6.5 °C 1014.8 hPa WSW 9.7 km/h 9.7 km/h 51 % 0.0 mm
18:40 16.4 °C 6.2 °C 1014.8 hPa West 20.6 km/h 20.6 km/h 51 % 0.0 mm
18:45 16.2 °C 6.3 °C 1014.8 hPa SSW 11.1 km/h 11.1 km/h 52 % 0.0 mm
18:50 16.3 °C 6.4 °C 1014.8 hPa South 7.4 km/h 7.9 km/h 52 % 0.0 mm
18:55 16.1 °C 6.2 °C 1014.8 hPa SSW 13.0 km/h 13.0 km/h 52 % 0.0 mm
19:00 16.0 °C 6.2 °C 1014.8 hPa WSW 9.3 km/h 9.3 km/h 52 % 0.0 mm
19:05 15.7 °C 6.2 °C 1014.8 hPa WSW 9.3 km/h 9.3 km/h 53 % 0.0 mm
19:10 15.5 °C 5.9 °C 1014.8 hPa SSW 9.3 km/h 9.3 km/h 53 % 0.0 mm
19:15 15.4 °C 5.9 °C 1014.8 hPa WSW 11.1 km/h 11.1 km/h 53 % 0.0 mm
19:20 15.2 °C 5.9 °C 1014.8 hPa WSW 11.1 km/h 11.1 km/h 54 % 0.0 mm
19:25 15.1 °C 5.8 °C 1014.8 hPa SW 11.1 km/h 11.1 km/h 54 % 0.0 mm
19:30 15.1 °C 5.8 °C 1014.8 hPa West 9.3 km/h 9.3 km/h 54 % 0.0 mm
19:35 14.8 °C 5.6 °C 1014.8 hPa West 9.3 km/h 9.3 km/h 54 % 0.0 mm
19:40 14.7 °C 5.5 °C 1014.8 hPa West 9.3 km/h 9.3 km/h 54 % 0.0 mm
19:45 14.6 °C 5.4 °C 1014.8 hPa WSW 9.3 km/h 9.3 km/h 54 % 0.0 mm
19:50 10.6 °C 4.5 °C 1015.8 hPa WSW 3.2 km/h 3.2 km/h 66 % 0.0 mm
20:00 10.5 °C 4.4 °C 1015.8 hPa WSW 3.2 km/h 3.2 km/h 66 % 0.0 mm
20:05 14.0 °C 5.3 °C 1014.8 hPa West 5.6 km/h 9.5 km/h 56 % 0.0 mm
20:10 13.8 °C 5.4 °C 1014.8 hPa West 5.6 km/h 9.5 km/h 57 % 0.0 mm
20:15 13.7 °C 5.3 °C 1014.8 hPa West 5.6 km/h 9.5 km/h 57 % 0.0 mm
20:20 13.6 °C 5.2 °C 1014.8 hPa West 5.6 km/h 9.5 km/h 57 % 0.0 mm
20:25 13.5 °C 5.4 °C 1014.8 hPa WSW 13.7 km/h 13.7 km/h 58 % 0.0 mm
20:30 13.3 °C 5.2 °C 1014.8 hPa West 5.8 km/h 9.7 km/h 58 % 0.0 mm
20:35 13.2 °C 5.1 °C 1014.8 hPa West 5.8 km/h 9.7 km/h 58 % 0.0 mm
20:40 10.4 °C 4.6 °C 1015.8 hPa West 1.6 km/h 3.2 km/h 67 % 0.0 mm
20:45 13.1 °C 5.0 °C 1014.8 hPa West 5.8 km/h 9.0 km/h 58 % 0.0 mm
20:50 13.0 °C 4.9 °C 1014.8 hPa West 5.8 km/h 9.0 km/h 58 % 0.0 mm
20:55 12.8 °C 4.7 °C 1014.8 hPa West 5.6 km/h 7.2 km/h 58 % 0.0 mm
21:00 12.7 °C 4.7 °C 1014.8 hPa WSW 4.2 km/h 6.9 km/h 58 % 0.0 mm
21:06 12.6 °C 4.6 °C 1014.8 hPa SW 7.4 km/h 7.9 km/h 58 % 0.0 mm
21:10 9.8 °C 4.2 °C 1014.8 hPa Calm     68 % 0.0 mm
21:11 12.5 °C 4.4 °C 1014.8 hPa WSW 5.6 km/h 7.6 km/h 58 % 0.0 mm
21:16 12.4 °C 4.3 °C 1014.8 hPa WSW 7.4 km/h 7.4 km/h 58 % 0.0 mm
21:17 12.4 °C 4.3 °C 1014.8 hPa WSW 7.4 km/h 7.4 km/h 58 % 0.0 mm
21:20 9.5 °C 3.9 °C 1015.8 hPa Calm     68 % 0.0 mm
21:22 12.3 °C 4.3 °C 1014.8 hPa SW 7.9 km/h 7.9 km/h 58 % 0.0 mm
21:27 12.2 °C 4.2 °C 1014.8 hPa WSW 7.4 km/h 7.4 km/h 58 % 0.0 mm
21:30 9.3 °C 3.9 °C 1014.8 hPa Calm     69 % 0.0 mm
21:32 12.2 °C 4.2 °C 1014.8 hPa WSW 6.4 km/h 6.4 km/h 58 % 0.0 mm
21:37 12.1 °C 4.1 °C 1014.8 hPa WSW 5.6 km/h 5.6 km/h 58 % 0.0 mm
21:40 9.1 °C 3.7 °C 1014.8 hPa Calm     69 % 0.0 mm
21:42 12.0 °C 4.0 °C 1014.8 hPa WSW 3.9 km/h 3.9 km/h 58 % 0.0 mm
21:47 11.9 °C 3.9 °C 1015.8 hPa SW 4.7 km/h 4.7 km/h 58 % 0.0 mm
21:50 9.0 °C 3.8 °C 1014.8 hPa Calm     70 % 0.0 mm
21:52 11.8 °C 3.8 °C 1015.8 hPa SW 2.3 km/h 3.9 km/h 58 % 0.0 mm
21:57 11.7 °C 3.7 °C 1015.8 hPa SW 4.2 km/h 4.2 km/h 58 % 0.0 mm
22:00 8.8 °C 3.8 °C 1014.8 hPa Calm     71 % 0.0 mm
22:02 11.7 °C 3.7 °C 1015.8 hPa West 7.4 km/h 7.4 km/h 58 % 0.0 mm
22:07 11.6 °C 3.6 °C 1015.8 hPa West 7.4 km/h 7.4 km/h 58 % 0.0 mm
22:10 8.7 °C 3.7 °C 1014.8 hPa Calm     71 % 0.0 mm
22:17 11.4 °C 3.4 °C 1014.8 hPa WSW 4.7 km/h 4.7 km/h 58 % 0.0 mm
22:20 8.5 °C 3.6 °C 1014.8 hPa Calm     71 % 0.0 mm
22:22 11.4 °C 3.7 °C 1014.8 hPa WSW 4.7 km/h 4.7 km/h 59 % 0.0 mm
22:27 11.3 °C 3.6 °C 1014.8 hPa SW 3.7 km/h 3.7 km/h 59 % 0.0 mm
22:30 8.5 °C 3.7 °C 1014.8 hPa Calm     72 % 0.0 mm
22:32 11.3 °C 3.6 °C 1015.8 hPa WSW 3.7 km/h 3.7 km/h 59 % 0.0 mm
22:37 11.3 °C 3.6 °C 1015.8 hPa West 3.9 km/h 5.0 km/h 59 % 0.0 mm
22:40 8.4 °C 3.7 °C 1014.8 hPa Calm     72 % 0.0 mm
22:42 11.3 °C 3.8 °C 1015.8 hPa WSW 7.4 km/h 7.4 km/h 60 % 0.0 mm
22:47 11.3 °C 3.8 °C 1015.8 hPa West 5.6 km/h 5.6 km/h 60 % 0.0 mm
22:50 8.3 °C 3.6 °C 1014.8 hPa Calm     72 % 0.0 mm
22:52 11.3 °C 3.8 °C 1015.8 hPa West 5.6 km/h 5.6 km/h 60 % 0.0 mm
22:57 11.2 °C 3.9 °C 1015.8 hPa WSW 5.6 km/h 5.6 km/h 61 % 0.0 mm
23:00 8.1 °C 3.3 °C 1014.8 hPa Calm     72 % 0.0 mm
23:02 11.1 °C 3.8 °C 1015.8 hPa SW 3.9 km/h 3.9 km/h 61 % 0.0 mm
23:07 11.1 °C 3.8 °C 1015.8 hPa SW 4.2 km/h 4.7 km/h 61 % 0.0 mm
23:10 8.0 °C 3.4 °C 1014.8 hPa Calm     73 % 0.0 mm
23:12 11.0 °C 4.0 °C 1015.8 hPa SW 4.2 km/h 4.7 km/h 62 % 0.0 mm
23:17 11.0 °C 4.0 °C 1015.8 hPa SW 4.2 km/h 4.7 km/h 62 % 0.0 mm
23:20 7.8 °C 3.3 °C 1013.8 hPa Calm   1.6 km/h 73 % 0.0 mm
23:22 10.9 °C 3.9 °C 1015.8 hPa SW 4.2 km/h 4.7 km/h 62 % 0.0 mm
23:27 10.9 °C 4.1 °C 1015.8 hPa SW 4.2 km/h 4.7 km/h 63 % 0.0 mm
23:30 7.7 °C 3.2 °C 1013.8 hPa Calm     73 % 0.0 mm
23:32 10.8 °C 4.1 °C 1015.8 hPa SW 4.2 km/h 4.7 km/h 63 % 0.0 mm
23:37 10.7 °C 3.9 °C 1015.8 hPa WSW 4.7 km/h 4.7 km/h 63 % 0.0 mm
23:40 7.5 °C 3.2 °C 1013.8 hPa Calm     74 % 0.0 mm
23:47 10.7 °C 4.2 °C 1014.8 hPa WSW 5.8 km/h 5.8 km/h 64 % 0.0 mm
23:50 7.3 °C 2.8 °C 1013.8 hPa Calm     73 % 0.0 mm
23:52 10.7 °C 4.2 °C 1014.8 hPa SW 5.6 km/h 5.6 km/h 64 % 0.0 mm
23:57 10.7 °C 4.4 °C 1014.8 hPa SW 7.4 km/h 7.4 km/h 65 % 0.0 mm
Meteo Sesrovires
Elogis d' Weather Underground - 3.5 mb

Guio original per  Jim McMurry - jmcmurry@mwt.net Adaptat per a la plantilla per  Wim van der Kuil - Leuven-Template.eu

Trobareu la nostra informacio del temps tambe a:

Weather Underground

AWEKAS